createdAt,value
2018-07-31T00:02:05.748Z,21.10
2018-07-31T00:04:34.079Z,21.00
2018-07-31T00:07:02.322Z,20.70
2018-07-31T00:09:30.548Z,20.60
2018-07-31T00:11:58.750Z,20.50
2018-07-31T00:14:27.510Z,20.60
2018-07-31T00:16:55.716Z,21.10
2018-07-31T00:19:23.957Z,21.30
2018-07-31T00:21:52.158Z,21.10
2018-07-31T00:24:20.336Z,20.80
2018-07-31T00:31:44.393Z,20.20
2018-07-31T00:34:12.590Z,20.20
2018-07-31T00:36:40.763Z,20.20
2018-07-31T00:39:10.317Z,20.10
2018-07-31T00:41:38.530Z,20.50
2018-07-31T00:44:06.716Z,20.10
2018-07-31T00:46:34.926Z,19.90
2018-07-31T00:49:03.160Z,20.00
2018-07-31T00:51:31.348Z,19.90
2018-07-31T00:53:59.552Z,19.90
2018-07-31T00:56:27.715Z,19.80
2018-07-31T00:58:55.888Z,19.70
2018-07-31T01:01:24.101Z,19.60
2018-07-31T01:03:52.332Z,19.50
2018-07-31T01:06:24.722Z,19.40
2018-07-31T01:08:52.896Z,19.50
2018-07-31T01:11:21.093Z,20.00
2018-07-31T01:13:49.306Z,19.70
2018-07-31T01:16:17.488Z,19.40
2018-07-31T01:18:45.682Z,19.10
2018-07-31T01:21:13.916Z,19.20
2018-07-31T01:23:42.095Z,19.20
2018-07-31T01:26:10.264Z,19.30
2018-07-31T01:28:38.438Z,19.50
2018-07-31T01:31:06.648Z,19.80
2018-07-31T01:33:34.893Z,19.80
2018-07-31T01:36:03.097Z,19.70
2018-07-31T01:38:31.377Z,20.10
2018-07-31T01:40:59.557Z,19.80
2018-07-31T01:43:27.728Z,19.50
2018-07-31T01:45:55.964Z,19.00
2018-07-31T01:48:24.139Z,18.80
2018-07-31T01:50:52.321Z,19.00
2018-07-31T01:53:20.507Z,19.50
2018-07-31T01:55:48.705Z,19.80
2018-07-31T01:58:16.898Z,19.40
2018-07-31T02:00:45.061Z,19.60
2018-07-31T02:03:13.305Z,19.70
2018-07-31T02:05:41.448Z,20.10
2018-07-31T02:08:09.636Z,19.90
2018-07-31T02:10:37.845Z,19.30
2018-07-31T02:13:06.961Z,19.50
2018-07-31T02:15:35.166Z,19.90
2018-07-31T02:18:03.408Z,19.80
2018-07-31T02:20:31.718Z,19.20
2018-07-31T02:22:59.909Z,19.70
2018-07-31T02:25:28.081Z,20.00
2018-07-31T02:27:56.274Z,19.30
2018-07-31T02:30:24.451Z,19.20
2018-07-31T02:32:53.024Z,19.00
2018-07-31T02:35:21.232Z,18.80
2018-07-31T02:37:49.489Z,19.10
2018-07-31T02:40:17.681Z,19.50
2018-07-31T02:42:45.950Z,19.30
2018-07-31T02:45:14.777Z,18.90
2018-07-31T02:50:11.768Z,18.60
2018-07-31T02:52:40.646Z,18.60
2018-07-31T02:55:10.163Z,18.80
2018-07-31T02:57:38.894Z,19.30
2018-07-31T03:00:08.149Z,19.10
2018-07-31T03:02:36.345Z,18.60
2018-07-31T03:05:06.219Z,18.70
2018-07-31T03:07:34.396Z,18.30
2018-07-31T03:10:02.575Z,18.10
2018-07-31T03:12:30.741Z,18.10
2018-07-31T03:14:58.934Z,18.20
2018-07-31T03:17:27.121Z,18.30
2018-07-31T03:19:55.311Z,18.50
2018-07-31T03:22:23.477Z,18.80
2018-07-31T03:24:51.829Z,19.10
2018-07-31T03:27:20.032Z,19.30
2018-07-31T03:29:48.233Z,19.30
2018-07-31T03:32:16.438Z,18.90
2018-07-31T03:37:12.576Z,19.40
2018-07-31T03:42:08.766Z,19.00
2018-07-31T03:44:36.958Z,18.50
2018-07-31T03:47:05.134Z,18.40
2018-07-31T03:49:33.319Z,18.50
2018-07-31T03:52:01.533Z,18.10
2018-07-31T03:54:29.759Z,18.10
2018-07-31T03:56:57.999Z,18.30
2018-07-31T03:59:26.186Z,18.80
2018-07-31T04:01:54.382Z,18.80
2018-07-31T04:04:22.614Z,18.80
2018-07-31T04:06:50.813Z,19.20
2018-07-31T04:09:19.023Z,18.60
2018-07-31T04:11:47.225Z,18.30
2018-07-31T04:14:15.406Z,18.40
2018-07-31T04:16:43.608Z,18.80
2018-07-31T04:19:11.744Z,19.10
2018-07-31T04:21:39.919Z,18.50
2018-07-31T04:24:08.117Z,18.20
2018-07-31T04:26:36.292Z,18.40
2018-07-31T04:29:04.473Z,18.90
2018-07-31T04:31:32.649Z,19.20
2018-07-31T04:34:00.833Z,19.20
2018-07-31T04:36:29.012Z,18.70
2018-07-31T04:38:57.209Z,18.50
2018-07-31T04:41:25.430Z,18.60
2018-07-31T04:43:53.589Z,19.00
2018-07-31T04:46:21.738Z,19.40
2018-07-31T04:48:49.938Z,19.50
2018-07-31T04:51:18.160Z,19.60
2018-07-31T04:53:46.350Z,19.40
2018-07-31T04:56:14.561Z,19.50
2018-07-31T04:58:42.758Z,19.00
2018-07-31T05:01:10.989Z,19.20
2018-07-31T05:03:39.166Z,19.60
2018-07-31T05:08:35.324Z,19.00
2018-07-31T05:11:03.565Z,18.90
2018-07-31T05:13:31.717Z,18.80
2018-07-31T05:15:59.906Z,18.60
2018-07-31T05:18:28.129Z,18.60
2018-07-31T05:20:56.332Z,18.60
2018-07-31T05:23:24.521Z,18.60
2018-07-31T05:25:52.732Z,18.60
2018-07-31T05:28:20.927Z,19.40
2018-07-31T05:30:49.129Z,20.00
2018-07-31T05:33:17.319Z,20.50
2018-07-31T05:35:45.504Z,20.80
2018-07-31T05:38:13.716Z,20.20
2018-07-31T05:43:09.854Z,20.40
2018-07-31T05:48:06.119Z,20.90
2018-07-31T05:50:34.337Z,20.90
2018-07-31T05:53:02.554Z,20.70
2018-07-31T05:57:58.732Z,20.60
2018-07-31T06:00:26.929Z,20.90
2018-07-31T06:02:55.141Z,21.70
2018-07-31T06:05:23.330Z,22.40
2018-07-31T06:07:51.534Z,22.90
2018-07-31T06:10:19.734Z,23.90
2018-07-31T06:12:47.932Z,24.30
2018-07-31T06:15:16.222Z,25.20
2018-07-31T06:17:44.405Z,25.80
2018-07-31T06:20:14.449Z,26.10
2018-07-31T06:22:42.914Z,26.50
2018-07-31T06:25:11.634Z,26.70
2018-07-31T06:27:39.975Z,26.80
2018-07-31T06:30:10.232Z,26.60
2018-07-31T06:32:38.726Z,26.70
2018-07-31T06:35:07.110Z,26.70
2018-07-31T06:37:35.444Z,26.70
2018-07-31T06:40:10.413Z,27.00
2018-07-31T06:42:38.786Z,26.90
2018-07-31T06:45:07.221Z,27.60
2018-07-31T06:52:31.812Z,28.30
2018-07-31T06:55:00.267Z,28.40
2018-07-31T06:57:28.665Z,28.60
2018-07-31T06:59:56.925Z,27.80
2018-07-31T07:02:25.233Z,28.10
2018-07-31T07:04:53.586Z,27.60
2018-07-31T07:07:21.841Z,28.70
2018-07-31T07:09:50.619Z,29.50
2018-07-31T07:12:18.978Z,29.70
2018-07-31T07:14:47.249Z,29.90
2018-07-31T07:17:15.586Z,30.30
2018-07-31T07:19:43.905Z,30.60
2018-07-31T07:24:40.232Z,30.10
2018-07-31T07:27:08.570Z,30.50
2018-07-31T07:29:36.904Z,30.70
2018-07-31T07:32:05.332Z,30.90
2018-07-31T07:34:33.609Z,30.70
2018-07-31T07:37:01.904Z,30.60
2018-07-31T07:39:30.232Z,29.50
2018-07-31T07:41:58.534Z,30.00
2018-07-31T07:44:26.825Z,28.90
2018-07-31T07:46:55.155Z,28.80
2018-07-31T07:49:23.491Z,28.50
2018-07-31T07:51:51.779Z,29.00
2018-07-31T07:54:20.237Z,29.40
2018-07-31T07:59:16.603Z,30.20
2018-07-31T08:01:44.981Z,29.00
2018-07-31T08:04:13.375Z,29.80
2018-07-31T08:06:41.772Z,30.90
2018-07-31T08:11:38.639Z,31.80
2018-07-31T08:14:06.953Z,32.00
2018-07-31T08:16:35.213Z,32.30
2018-07-31T08:19:03.514Z,31.80
2018-07-31T08:21:31.958Z,31.70
2018-07-31T08:24:00.282Z,32.30
2018-07-31T08:26:28.566Z,32.60
2018-07-31T08:28:56.914Z,33.30
2018-07-31T08:31:25.296Z,33.60
2018-07-31T08:33:53.687Z,33.60
2018-07-31T08:36:22.009Z,33.80
2018-07-31T08:38:50.322Z,33.60
2018-07-31T08:41:18.774Z,33.30
2018-07-31T08:43:47.104Z,33.10
2018-07-31T08:46:15.544Z,32.90
2018-07-31T08:48:43.846Z,34.00
2018-07-31T08:51:12.220Z,34.00
2018-07-31T08:53:40.547Z,35.10
2018-07-31T08:56:08.854Z,34.80
2018-07-31T09:01:05.175Z,35.70
2018-07-31T09:03:33.518Z,35.20
2018-07-31T09:06:01.883Z,35.40
2018-07-31T09:08:30.462Z,35.20
2018-07-31T09:13:26.631Z,35.10
2018-07-31T09:15:54.981Z,35.50
2018-07-31T09:18:23.261Z,35.50
2018-07-31T09:20:51.538Z,35.30
2018-07-31T09:23:19.865Z,35.10
2018-07-31T09:25:48.388Z,35.10
2018-07-31T09:28:17.797Z,35.20
2018-07-31T09:30:51.469Z,35.80
2018-07-31T09:33:19.758Z,35.70
2018-07-31T09:35:48.036Z,35.20
2018-07-31T09:38:16.327Z,33.90
2018-07-31T09:40:44.598Z,33.70
2018-07-31T09:43:12.897Z,33.90
2018-07-31T09:45:41.140Z,34.10
2018-07-31T09:48:09.462Z,34.10
2018-07-31T09:50:37.825Z,35.40
2018-07-31T09:53:06.157Z,36.40
2018-07-31T09:58:02.591Z,34.90
2018-07-31T10:00:36.189Z,34.40
2018-07-31T10:03:04.503Z,35.40
2018-07-31T10:05:32.778Z,35.80
2018-07-31T10:08:01.091Z,36.10
2018-07-31T10:10:29.346Z,35.90
2018-07-31T10:12:57.740Z,36.90
2018-07-31T10:15:26.021Z,36.70
2018-07-31T10:17:54.415Z,35.50
2018-07-31T10:20:22.669Z,36.10
2018-07-31T10:22:51.361Z,36.80
2018-07-31T10:25:19.632Z,37.50
2018-07-31T10:27:48.539Z,35.50
2018-07-31T10:30:17.014Z,34.20
2018-07-31T10:32:45.330Z,32.80
2018-07-31T10:35:13.609Z,32.90
2018-07-31T10:40:10.091Z,35.00
2018-07-31T10:42:38.454Z,36.50
2018-07-31T10:45:06.875Z,37.30
2018-07-31T10:47:35.385Z,37.60
2018-07-31T10:50:03.723Z,37.60
2018-07-31T10:52:32.147Z,37.60
2018-07-31T10:55:00.519Z,37.80
2018-07-31T10:57:28.952Z,38.00
2018-07-31T10:59:57.419Z,38.70
2018-07-31T11:02:25.683Z,38.90
2018-07-31T11:04:54.058Z,38.90
2018-07-31T11:09:51.063Z,38.40
2018-07-31T11:12:19.494Z,38.60
2018-07-31T11:14:47.963Z,39.10
2018-07-31T11:17:16.314Z,39.60
2018-07-31T11:19:44.743Z,39.40
2018-07-31T11:22:13.053Z,40.50
2018-07-31T11:24:41.580Z,40.60
2018-07-31T11:27:09.978Z,40.80
2018-07-31T11:29:38.300Z,40.80
2018-07-31T11:32:06.846Z,40.70
2018-07-31T11:34:35.261Z,40.60
2018-07-31T11:37:03.683Z,40.30
2018-07-31T11:39:32.026Z,40.20
2018-07-31T11:42:00.290Z,40.60
2018-07-31T11:44:28.570Z,40.20
2018-07-31T11:46:56.877Z,40.70
2018-07-31T11:49:25.191Z,40.90
2018-07-31T11:51:53.492Z,41.90
2018-07-31T11:54:21.815Z,41.30
2018-07-31T11:56:50.194Z,40.80
2018-07-31T11:59:18.506Z,39.70
2018-07-31T12:01:46.908Z,39.90
2018-07-31T12:04:15.224Z,39.00
2018-07-31T12:06:43.506Z,39.70
2018-07-31T12:09:13.212Z,38.90
2018-07-31T12:11:42.888Z,38.30
2018-07-31T12:14:11.334Z,37.60
2018-07-31T12:16:39.788Z,36.50
2018-07-31T12:19:08.323Z,36.40
2018-07-31T12:21:36.585Z,36.40
2018-07-31T12:24:04.882Z,36.10
2018-07-31T12:26:33.222Z,36.20
2018-07-31T12:31:29.603Z,36.80
2018-07-31T12:33:58.027Z,37.00
2018-07-31T12:36:26.353Z,37.30
2018-07-31T12:38:54.658Z,37.80
2018-07-31T12:41:22.951Z,37.30
2018-07-31T12:43:51.278Z,36.60
2018-07-31T12:46:19.647Z,35.80
2018-07-31T12:51:16.193Z,36.20
2018-07-31T12:56:12.645Z,35.80
2018-07-31T13:01:08.990Z,35.60
2018-07-31T13:06:05.510Z,35.50
2018-07-31T13:08:33.888Z,35.50
2018-07-31T13:11:02.217Z,35.50
2018-07-31T13:13:30.511Z,36.10
2018-07-31T13:15:58.833Z,36.00
2018-07-31T13:18:27.146Z,35.10
2018-07-31T13:20:55.432Z,35.20
2018-07-31T13:23:23.748Z,35.40
2018-07-31T13:25:52.027Z,35.40
2018-07-31T13:28:20.334Z,34.90
2018-07-31T13:30:48.675Z,35.00
2018-07-31T13:38:12.818Z,35.30
2018-07-31T13:40:41.032Z,35.50
2018-07-31T13:43:09.238Z,35.10
2018-07-31T13:45:37.470Z,34.80
2018-07-31T13:48:05.737Z,34.30
2018-07-31T13:53:01.966Z,34.50
2018-07-31T13:55:30.192Z,34.90
2018-07-31T14:00:27.074Z,35.20
2018-07-31T14:02:55.288Z,35.10
2018-07-31T14:05:23.521Z,34.90
2018-07-31T14:07:51.710Z,34.70
2018-07-31T14:10:19.967Z,34.30
2018-07-31T14:12:48.229Z,34.00
2018-07-31T14:15:16.447Z,34.20
2018-07-31T14:17:44.624Z,34.20
2018-07-31T14:20:12.897Z,34.20
2018-07-31T14:22:41.156Z,34.50
2018-07-31T14:25:09.374Z,34.60
2018-07-31T14:30:06.178Z,34.90
2018-07-31T14:32:34.396Z,34.90
2018-07-31T14:35:02.645Z,34.80
2018-07-31T14:37:31.158Z,34.40
2018-07-31T14:39:59.439Z,34.10
2018-07-31T14:42:27.666Z,34.10
2018-07-31T14:44:55.899Z,34.40
2018-07-31T14:47:24.130Z,34.50
2018-07-31T14:49:52.355Z,34.40
2018-07-31T14:52:20.631Z,34.30
2018-07-31T14:54:48.847Z,34.40
2018-07-31T14:57:17.029Z,34.50
2018-07-31T14:59:45.230Z,34.40
2018-07-31T15:02:13.517Z,34.40
2018-07-31T15:04:41.765Z,34.30
2018-07-31T15:07:09.950Z,34.10
2018-07-31T15:09:38.150Z,34.40
2018-07-31T15:12:06.357Z,34.40
2018-07-31T15:14:34.547Z,34.20
2018-07-31T15:17:02.729Z,34.00
2018-07-31T15:19:31.100Z,34.00
2018-07-31T15:21:59.284Z,33.80
2018-07-31T15:24:27.493Z,33.90
2018-07-31T15:29:23.721Z,33.90
2018-07-31T15:31:51.986Z,33.80
2018-07-31T15:34:20.324Z,33.50
2018-07-31T15:36:48.664Z,33.30
2018-07-31T15:39:16.962Z,33.10
2018-07-31T15:41:45.394Z,33.10
2018-07-31T15:44:13.690Z,33.10
2018-07-31T15:49:10.150Z,33.20
2018-07-31T15:54:06.714Z,33.00
2018-07-31T15:59:03.155Z,32.90
2018-07-31T16:03:59.485Z,33.10
2018-07-31T16:06:27.786Z,33.10
2018-07-31T16:08:56.231Z,33.20
2018-07-31T16:11:24.623Z,33.20
2018-07-31T16:13:52.964Z,33.20
2018-07-31T16:16:21.382Z,33.00
2018-07-31T16:18:49.717Z,33.00
2018-07-31T16:21:18.026Z,33.10
2018-07-31T16:23:46.262Z,32.90
2018-07-31T16:26:14.588Z,32.90
2018-07-31T16:28:42.831Z,32.90
2018-07-31T16:31:11.185Z,32.90
2018-07-31T16:33:39.595Z,32.90
2018-07-31T16:36:08.031Z,32.60
2018-07-31T16:38:36.376Z,32.70
2018-07-31T16:41:04.682Z,32.70
2018-07-31T16:43:33.034Z,32.70
2018-07-31T16:46:01.479Z,32.60
2018-07-31T16:50:57.883Z,32.60
2018-07-31T16:55:54.281Z,32.40
2018-07-31T16:58:22.666Z,32.30
2018-07-31T17:00:50.986Z,32.10
2018-07-31T17:05:47.490Z,31.90
2018-07-31T17:08:15.825Z,31.90
2018-07-31T17:10:44.198Z,31.80
2018-07-31T17:13:12.497Z,32.00
2018-07-31T17:15:40.966Z,32.00
2018-07-31T17:18:09.434Z,31.90
2018-07-31T17:20:37.734Z,31.70
2018-07-31T17:23:06.080Z,31.60
2018-07-31T17:25:34.365Z,31.60
2018-07-31T17:28:02.632Z,31.60
2018-07-31T17:30:30.868Z,31.60
2018-07-31T17:32:59.174Z,31.60
2018-07-31T17:35:27.611Z,31.60
2018-07-31T17:37:55.870Z,31.50
2018-07-31T17:40:24.206Z,31.30
2018-07-31T17:42:52.525Z,31.50
2018-07-31T17:45:20.858Z,31.50
2018-07-31T17:47:49.226Z,31.50
2018-07-31T17:50:17.550Z,31.20
2018-07-31T17:52:45.870Z,31.00
2018-07-31T17:55:14.194Z,30.80
2018-07-31T17:57:42.676Z,30.70
2018-07-31T18:00:11.019Z,30.60
2018-07-31T18:02:39.320Z,30.50
2018-07-31T18:05:07.710Z,30.60
2018-07-31T18:07:36.037Z,30.70
2018-07-31T18:10:04.419Z,30.50
2018-07-31T18:12:32.738Z,30.50
2018-07-31T18:15:00.990Z,30.30
2018-07-31T18:17:29.379Z,30.20
2018-07-31T18:19:57.825Z,30.30
2018-07-31T18:22:26.245Z,30.20
2018-07-31T18:24:54.613Z,30.10
2018-07-31T18:27:22.874Z,30.20
2018-07-31T18:29:51.208Z,30.10
2018-07-31T18:32:19.582Z,29.90
2018-07-31T18:34:47.989Z,29.90
2018-07-31T18:37:16.259Z,29.70
2018-07-31T18:39:44.600Z,29.60
2018-07-31T18:42:12.854Z,29.50
2018-07-31T18:44:41.133Z,29.50
2018-07-31T18:47:09.477Z,29.30
2018-07-31T18:49:37.698Z,29.20
2018-07-31T18:52:05.949Z,29.10
2018-07-31T18:54:34.242Z,29.00
2018-07-31T18:57:02.500Z,29.00
2018-07-31T18:59:30.799Z,28.80
2018-07-31T19:01:59.089Z,28.80
2018-07-31T19:04:27.382Z,28.70
2018-07-31T19:06:55.704Z,28.70
2018-07-31T19:09:24.087Z,28.60
2018-07-31T19:11:52.414Z,28.60
2018-07-31T19:14:20.742Z,28.50
2018-07-31T19:16:49.112Z,28.40
2018-07-31T19:19:17.382Z,28.30
2018-07-31T19:21:45.728Z,28.10
2018-07-31T19:24:14.042Z,28.10
2018-07-31T19:26:42.401Z,28.00
2018-07-31T19:29:10.731Z,27.90
2018-07-31T19:31:39.080Z,27.80
2018-07-31T19:34:07.407Z,27.70
2018-07-31T19:36:35.783Z,27.60
2018-07-31T19:41:34.434Z,27.60
2018-07-31T19:44:02.741Z,27.50
2018-07-31T19:46:31.110Z,27.50
2018-07-31T19:48:59.454Z,27.20
2018-07-31T19:51:27.862Z,26.80
2018-07-31T19:53:56.409Z,26.70
2018-07-31T19:56:24.718Z,26.80
2018-07-31T19:58:53.039Z,26.80
2018-07-31T20:01:21.343Z,26.90
2018-07-31T20:03:49.636Z,27.20
2018-07-31T20:08:45.997Z,27.30
2018-07-31T20:11:14.268Z,27.30
2018-07-31T20:13:42.549Z,27.00
2018-07-31T20:16:10.848Z,26.60
2018-07-31T20:18:39.157Z,26.30
2018-07-31T20:21:07.475Z,26.20
2018-07-31T20:23:35.745Z,26.20
2018-07-31T20:26:04.076Z,26.30
2018-07-31T20:28:32.445Z,26.20
2018-07-31T20:31:00.862Z,26.10
2018-07-31T20:33:29.472Z,26.10
2018-07-31T20:35:57.794Z,26.00
2018-07-31T20:38:26.178Z,26.00
2018-07-31T20:43:22.548Z,26.00
2018-07-31T20:48:19.032Z,26.40
2018-07-31T20:50:47.319Z,26.40
2018-07-31T20:53:15.655Z,26.20
2018-07-31T20:55:43.932Z,26.10
2018-07-31T20:58:12.303Z,25.90
2018-07-31T21:00:40.655Z,25.80
2018-07-31T21:03:08.998Z,25.70
2018-07-31T21:05:37.278Z,25.90
2018-07-31T21:08:05.654Z,25.80
2018-07-31T21:10:33.959Z,25.40
2018-07-31T21:13:02.576Z,25.40
2018-07-31T21:15:30.853Z,25.30
2018-07-31T21:17:59.190Z,25.30
2018-07-31T21:20:27.478Z,25.30
2018-07-31T21:22:55.813Z,25.60
2018-07-31T21:25:24.166Z,25.80
2018-07-31T21:27:52.550Z,25.90
2018-07-31T21:30:21.025Z,25.70
2018-07-31T21:32:49.425Z,25.80
2018-07-31T21:35:17.750Z,25.90
2018-07-31T21:37:46.081Z,25.60
2018-07-31T21:40:14.462Z,25.00
2018-07-31T21:42:42.872Z,24.60
2018-07-31T21:45:11.316Z,24.40
2018-07-31T21:47:39.680Z,24.40
2018-07-31T21:50:08.009Z,24.60
2018-07-31T21:52:36.324Z,24.70
2018-07-31T21:55:04.786Z,25.00
2018-07-31T21:57:33.151Z,25.00
2018-07-31T22:00:01.490Z,25.00
2018-07-31T22:02:29.814Z,25.00
2018-07-31T22:04:58.193Z,24.80
2018-07-31T22:07:26.570Z,24.50
2018-07-31T22:09:54.855Z,24.50
2018-07-31T22:12:23.161Z,24.50
2018-07-31T22:14:51.564Z,24.50
2018-07-31T22:17:20.046Z,24.40
2018-07-31T22:19:48.500Z,24.10
2018-07-31T22:22:16.825Z,24.00
2018-07-31T22:24:45.219Z,24.20
2018-07-31T22:27:13.571Z,24.40
2018-07-31T22:29:41.940Z,24.50
2018-07-31T22:32:10.328Z,24.40
2018-07-31T22:34:38.730Z,24.40
2018-07-31T22:37:07.106Z,24.00
2018-07-31T22:39:35.486Z,23.50
2018-07-31T22:42:03.909Z,23.10
2018-07-31T22:44:32.281Z,22.90
2018-07-31T22:47:00.546Z,22.70
2018-07-31T22:49:28.853Z,23.00
2018-07-31T22:51:57.128Z,23.40
2018-07-31T22:54:25.489Z,23.20
2018-07-31T22:59:21.857Z,22.70
2018-07-31T23:01:50.250Z,22.60
2018-07-31T23:04:18.608Z,22.60
2018-07-31T23:06:46.937Z,22.80
2018-07-31T23:09:15.253Z,23.10
2018-07-31T23:14:11.744Z,23.30
2018-07-31T23:16:40.018Z,23.10
2018-07-31T23:19:08.437Z,22.70
2018-07-31T23:21:36.797Z,22.40
2018-07-31T23:24:05.126Z,22.30
2018-07-31T23:26:33.512Z,22.40
2018-07-31T23:29:01.821Z,22.40
2018-07-31T23:31:30.099Z,22.40
2018-07-31T23:33:58.587Z,22.30
2018-07-31T23:36:26.919Z,22.60
2018-07-31T23:38:55.242Z,22.80
2018-07-31T23:41:24.438Z,22.70
2018-07-31T23:43:52.753Z,22.20
2018-07-31T23:48:49.138Z,21.80
2018-07-31T23:51:17.482Z,22.00
2018-07-31T23:53:45.783Z,22.30
2018-07-31T23:56:14.196Z,22.70
2018-07-31T23:58:42.614Z,22.90
